KCGS

College Park Airport

College Park, Maryland, USA
METAR KCGS 161202Z AUTO 33005KT 10SM CLR 11/04 A3020 RMK AO1 T01130040
Observed Flight Rules
Oct-16 @ 12:02 UTC (11 minutes ago) Visual Flight Rules
Wind Visibility Clouds
330° at 5 knots 10 miles
  • Clear skies
Temperatures Readings
Current 11°C / 52°F
Dewpoint 4°C / 39°F
Humidity 62%
Altimeter 30.2" Hg
Pressure 1023 hPa
Elevation 15
METAR KCGS 161202Z AUTO 33005KT 10SM CLR 11/04 A3020 RMK AO1 T01130040
Observed Flight Rules
Oct-16 @ 12:02 UTC
(11 minutes ago)
VFR
Wind Visibility
330° at 5 knots 10 miles
Clouds
  • Clear skies
Temperature Dewpoint
11°C / 52°F 4°C / 39°F
Humidity Altimeter Pressure
62% 30.2" Hg 1023 hPa